ADDS METAR Data INFO
IDs: Format: Raw Decoded Include TAF

Data at: 0742 UTC 23 Jul 2018

METAR for:KFXE (Ft Lauderdale/Execut, FL, US)
Text:KFXE 230653Z AUTO 21003KT 10SM CLR 26/24 A2990 RMK AO2 SLP129 T02610239
Temperature: 26.1°C ( 79°F)
Dewpoint: 23.9°C ( 75°F) [RH = 88%]
Pressure (altimeter):29.90 inches Hg (1012.6 mb) [Sea level pressure: 1012.9 mb]
Winds:from the SSW (210 degrees) at 3 MPH (3 knots; 1.5 m/s)
Visibility:10 or more sm (16+ km)
Ceiling:at least 12,000 feet AGL
Clouds:sky clear below 12,000 feet AGL
QC Flag:automated observation with no human augmentation